Latest Coastal Weather Observations for Shark Bay Airport

IDW60701

Issued at 7:32 am WST Saturday 30 July 2016 (issued every 10 minutes, with the page automatically refreshed every 10 minutes)

About coastal observations | Map of coastal stations | Coastal observations for WA | Marine services | Other Formats
Station Details ID: 006105 Name: SHARK BAY AIRPORT Lat: -25.89 Lon: 113.58 Height: 33.8 m
Data from the previous 72 hours. | See also: Recent months at Shark Bay Airport
Date/Time
WST
Temp
°C
Wind Pressure Rain since
9am
mm
Weather Cloud Vis
km
Sea
Height
m
Swell
Dir  Spd
kts
Gust
kts
hPa Trend Height
m
Period
s
Dir
30/07:30am 17.7 SSE 7 8 1018.4 - 0.0 - - - - - - -
30/07:00am 17.3 SSE 5 6 1018.2 - 0.0 - - - - - - -
30/06:30am 17.9 SSE 5 5 1017.7 - 0.0 - - - - - - -
30/06:00am 18.7 SSE 6 8 1017.6 - 0.0 - - - - - - -
30/05:30am 19.5 SSE 6 8 1017.5 - 0.0 - - - - - - -
30/05:00am 19.7 SSW 6 7 1017.6 - 0.0 - - - - - - -
30/04:30am 19.7 SW 5 9 1017.7 - 0.0 - - - - - - -
30/04:00am 19.0 NNW 4 4 1017.5 - 0.0 - - - - - - -
30/03:30am 19.4 WNW 4 5 1017.6 - 0.0 - - - - - - -
30/03:00am 19.1 WNW 4 5 1017.6 - 0.0 - - - - - - -
30/02:30am 18.8 NW 5 6 1018.0 - 0.0 - - - - - - -
30/02:00am 18.3 WNW 3 4 1018.2 - 0.0 - - - - - - -
30/01:30am 17.5 WNW 4 5 1018.3 - 0.0 - - - - - - -
30/01:00am 16.8 NW 5 5 1018.3 - 0.0 - - - - - - -
30/12:30am 17.2 NW 7 8 1018.5 - 0.0 - - - - - - -
30/12:00am 17.2 NW 6 7 1018.9 - 0.0 - - - - - - -
 
Date/Time
WST
Temp
°C
Wind Pressure Rain since
9am
mm
Weather Cloud Vis
km
Sea
Height
m
Swell
Dir  Spd
kts
Gust
kts
hPa Trend Height
m
Period
s
Dir
29/11:30pm 16.8 NW 7 8 1019.0 - 0.0 - - - - - - -
29/11:00pm 16.5 WNW 3 4 1019.2 - 0.0 - - - - - - -
29/10:30pm 17.4 NW 7 7 1019.1 - 0.0 - - - - - - -
29/10:00pm 17.6 WNW 5 6 1019.0 - 0.0 - - - - - - -
29/09:30pm 18.5 NW 6 6 1018.9 - 0.0 - - - - - - -
29/09:00pm 18.2 WNW 4 5 1018.7 - 0.0 - - - - - - -
29/08:30pm 18.0 W 5 5 1018.8 - 0.0 - - - - - - -
29/08:00pm 18.1 WSW 4 5 1018.8 - 0.0 - - - - - - -
29/07:30pm 18.5 WSW 4 5 1018.8 - 0.0 - - - - - - -
29/07:00pm 19.1 WSW 6 7 1018.4 - 0.0 - - - - - - -
29/06:30pm 20.1 WSW 5 5 1018.0 - 0.0 - - - - - - -
29/06:00pm 21.7 WNW 6 8 1017.5 - 0.0 - - - - - - -
29/05:30pm 22.9 W 8 10 1017.4 - 0.0 - - - - - - -
29/05:00pm 24.3 WNW 10 13 1017.2 - 0.0 - - - - - - -
29/04:30pm 25.4 WNW 11 14 1017.0 - 0.0 - - - - - - -
29/04:00pm 26.9 WNW 12 17 1016.6 - 0.0 - - - - - - -
29/03:30pm 26.8 NW 12 17 1016.8 - 0.0 - - - - - - -
29/03:00pm 26.5 WNW 14 17 1017.0 - 0.0 - - - - - - -
29/02:30pm 26.7 WNW 13 17 1017.0 - 0.0 - - - - - - -
29/02:00pm 27.7 WNW 13 16 1016.6 - 0.0 - - - - - - -
29/01:30pm 28.5 WNW 11 15 1016.7 - 0.0 - - - - - - -
29/01:00pm 27.6 WNW 10 14 1016.9 - 0.0 - - - - - - -
29/12:30pm 27.2 WNW 12 15 1017.5 - 0.0 - - - - - - -
29/12:00pm 28.2 WNW 10 13 1017.7 - 0.0 - - - - - - -
29/11:30am 27.1 WNW 7 10 1018.2 - 0.0 - - - - - - -
29/11:00am 27.0 NW 6 11 1018.6 - 0.0 - - - - - - -
29/10:30am 24.4 N 7 10 1018.5 - 0.0 - - - - - - -
29/10:00am 23.1 NW 4 6 1019.1 - 0.0 - - - - - - -
29/09:30am 21.4 NNW 5 7 1019.1 - 0.0 - - - - - - -
29/09:00am 18.6 WNW 3 5 1018.7 - 0.0 - - - - - - -
29/08:30am 18.2 NW 3 4 1018.4 - 0.0 - - - - - - -
29/08:00am 16.5 N 4 4 1018.3 - 0.0 - - - - - - -
29/07:30am 14.8 NNE 5 6 1017.9 - 0.0 - - - - - - -
29/07:00am 14.2 NE 4 5 1017.8 - 0.0 - - - - - - -
29/06:30am 13.8 NE 5 5 1017.5 - 0.0 - - - - - - -
29/06:00am 13.6 NE 6 6 1017.4 - 0.0 - - - - - - -
29/05:30am 13.6 ENE 6 6 1017.3 - 0.0 - - - - - - -
29/05:00am 13.3 ENE 5 6 1017.3 - 0.0 - - - - - - -
29/04:30am 12.9 ENE 6 6 1017.3 - 0.0 - - - - - - -
29/04:00am 13.5 ENE 6 7 1017.3 - 0.0 - - - - - - -
29/03:30am 14.1 ENE 5 6 1017.4 - 0.0 - - - - - - -
29/03:00am 14.5 ENE 5 5 1017.5 - 0.0 - - - - - - -
29/02:30am 14.9 E 4 5 1017.6 - 0.0 - - - - - - -
29/02:00am 15.1 E 5 6 1017.8 - 0.0 - - - - - - -
29/01:30am 15.9 ESE 4 5 1018.1 - 0.0 - - - - - - -
29/01:00am 16.0 SE 6 6 1018.2 - 0.0 - - - - - - -
29/12:30am 16.5 SE 5 7 1018.3 - 0.0 - - - - - - -
29/12:00am 16.7 SE 5 5 1018.5 - 0.0 - - - - - - -
 
Date/Time
WST
Temp
°C
Wind Pressure Rain since
9am
mm
Weather Cloud Vis
km
Sea
Height
m
Swell
Dir  Spd
kts
Gust
kts
hPa Trend Height
m
Period
s
Dir
28/11:30pm 17.1 SE 4 5 1018.5 - 0.0 - - - - - - -
28/11:00pm 17.0 ESE 5 6 1018.5 - 0.0 - - - - - - -
28/10:30pm 17.1 ESE 4 5 1018.9 - 0.0 - - - - - - -
28/10:00pm 17.9 SSE 5 6 1019.1 - 0.0 - - - - - - -
28/09:30pm 18.7 S 5 6 1019.2 - 0.0 - - - - - - -
28/09:00pm 19.5 SSE 5 7 1019.3 - 0.0 - - - - - - -
28/08:30pm 20.1 S 6 6 1019.4 - 0.0 - - - - - - -
28/08:00pm 20.2 S 4 5 1019.3 - 0.0 - - - - - - -
28/07:30pm 20.2 SSW 3 3 1019.2 - 0.0 - - - - - - -
28/07:00pm 20.2 SSW 3 4 1019.1 - 0.0 - - - - - - -
28/06:30pm 20.7 CALM 0 0 1019.1 - 0.0 - - - - - - -
28/06:00pm 21.5 CALM 0 0 1018.7 - 0.0 - - - - - - -
28/05:30pm 22.5 SW 3 4 1018.5 - 0.0 - - - - - - -
28/05:00pm 23.3 SW 4 5 1018.6 - 0.0 - - - - - - -
28/04:30pm 23.7 SW 5 6 1018.5 - 0.0 - - - - - - -
28/04:00pm 23.5 SW 6 7 1018.4 - 0.0 - - - - - - -
28/03:30pm 24.1 SW 6 7 1018.3 - 0.0 - - - - - - -
28/03:00pm 24.6 SW 6 8 1018.2 - 0.0 - - - - - - -
28/02:30pm 25.5 SW 7 8 1018.1 - 0.0 - - - - - - -
28/02:00pm 26.0 SW 7 9 1018.2 - 0.0 - - - - - - -
28/01:30pm 26.4 SW 6 9 1018.1 - 0.0 - - - - - - -
28/01:00pm 25.0 SW 7 8 1018.6 - 0.0 - - - - - - -
28/12:30pm 26.0 N 3 5 1019.1 - 0.0 - - - - - - -
28/12:00pm 25.0 SE 4 7 1019.5 - 0.0 - - - - - - -
28/11:30am 25.6 SE 3 7 1019.8 - 0.0 - - - - - - -
28/11:00am 24.0 ESE 4 6 1019.9 - 0.0 - - - - - - -
28/10:30am 23.1 SE 6 8 1020.4 - 0.0 - - - - - - -
28/10:00am 22.7 ESE 6 8 1020.5 - 0.0 - - - - - - -
28/09:30am 20.5 ESE 6 8 1020.3 - 0.0 - - - - - - -
28/09:00am 19.7 ESE 5 7 1020.1 - 0.0 - - - - - - -
28/08:30am 17.3 SE 3 4 1020.1 - 0.0 - - - - - - -
28/08:00am 16.0 SSE 4 5 1020.0 - 0.0 - - - - - - -
28/07:30am 15.5 SSE 4 5 1019.6 - 0.0 - - - - - - -
28/07:00am 15.0 ESE 5 5 1019.3 - 0.0 - - - - - - -
28/06:30am 15.1 E 5 6 1019.0 - 0.0 - - - - - - -
28/06:00am 15.4 E 5 6 1019.0 - 0.0 - - - - - - -
28/05:30am 15.8 ESE 5 6 1019.1 - 0.0 - - - - - - -
28/05:00am 15.8 ESE 5 6 1019.1 - 0.0 - - - - - - -
28/04:30am 16.1 ESE 5 6 1019.0 - 0.0 - - - - - - -
28/04:00am 16.0 E 5 6 1019.1 - 0.0 - - - - - - -
28/03:30am 16.0 SSE 6 7 1019.3 - 0.0 - - - - - - -
28/03:00am 16.3 SSE 6 7 1019.8 - 0.0 - - - - - - -
28/02:30am 16.6 SSE 6 7 1019.8 - 0.0 - - - - - - -
28/02:00am 16.7 SSE 6 7 1019.8 - 0.0 - - - - - - -
28/01:30am 16.7 SSE 5 6 1020.0 - 0.0 - - - - - - -
28/01:00am 17.3 SSE 5 6 1020.1 - 0.0 - - - - - - -
28/12:30am 17.6 SSE 6 6 1020.1 - 0.0 - - - - - - -
28/12:00am 17.0 SE 4 4 1019.9 - 0.0 - - - - - - -
 
Date/Time
WST
Temp
°C
Wind Pressure Rain since
9am
mm
Weather Cloud Vis
km
Sea
Height
m
Swell
Dir  Spd
kts
Gust
kts
hPa Trend Height
m
Period
s
Dir
27/11:30pm 17.2 E 4 5 1020.0 - 0.0 - - - - - - -
27/11:00pm 16.7 ESE 4 5 1020.4 - 0.0 - - - - - - -
27/10:30pm 17.3 SE 5 6 1020.7 - 0.0 - - - - - - -
27/10:00pm 17.9 SSE 6 7 1020.9 - 0.0 - - - - - - -
27/09:30pm 17.4 SE 5 6 1020.8 - 0.0 - - - - - - -
27/09:00pm 17.5 SE 6 6 1020.6 - 0.0 - - - - - - -
27/08:30pm 17.3 SE 5 5 1020.6 - 0.0 - - - - - - -
27/08:00pm 17.3 SSE 7 7 1020.6 - 0.0 - - - - - - -
27/07:30pm 17.5 SSE 6 7 1020.2 - 0.0 - - - - - - -
27/07:00pm 17.9 SE 4 5 1019.8 - 0.0 - - - - - - -
27/06:30pm 18.8 SE 5 6 1019.9 - 0.0 - - - - - - -
27/06:00pm 19.9 S 6 6 1020.0 - 0.0 - - - - - - -
27/05:30pm 20.9 ESE 5 5 1019.5 - 0.0 - - - - - - -
27/05:00pm 22.0 E 7 8 1018.8 - 0.0 - - - - - - -
27/04:30pm 23.5 E 8 10 1018.8 - 0.0 - - - - - - -
27/04:00pm 23.0 E 7 10 1018.8 - 0.0 - - - - - - -
27/03:30pm 22.4 E 10 13 1018.1 - 0.0 - - - - - - -
27/03:00pm 22.8 ENE 9 13 1018.2 - 0.0 - - - - - - -
27/02:30pm 23.0 ENE 11 16 1018.5 - 0.0 - - - - - - -
27/02:00pm 22.5 E 14 18 1018.7 - 0.0 - - - - - - -
27/01:30pm 22.3 ENE 13 17 1019.3 - 0.0 - - - - - - -
27/01:00pm 21.8 E 14 18 1019.7 - 0.0 - - - - - - -
27/12:30pm 21.5 E 13 16 1020.3 - 0.0 - - - - - - -
27/12:00pm 19.8 E 13 17 1020.8 - 0.0 - - - - - - -
27/11:30am 20.7 ENE 15 21 1021.6 - 0.0 - - - - - - -
27/11:00am 19.0 E 16 22 1021.7 - 0.0 - - - - - - -
27/10:30am 18.2 E 14 19 1022.1 - 0.0 - - - - - - -
27/10:00am 17.1 E 13 17 1022.4 - 0.0 - - - - - - -
27/09:30am 18.0 E 13 17 1022.7 - 0.0 - - - - - - -
27/09:00am 16.2 E 12 18 1022.4 - 0.0 - - - - - - -
27/08:30am 15.1 E 11 16 1022.3 - 0.0 - - - - - - -
27/08:00am 14.0 ENE 10 14 1022.1 - 0.0 - - - - - - -

Other Formats:

Comma delimited format used in spreadsheet applications
http://www.bom.gov.au/fwo/IDW60701/IDW60701.95402.axf

JavaScript Object Notation format (JSON) in row-major order
http://www.bom.gov.au/fwo/IDW60701/IDW60701.95402.json